• Join FlightAware (Why Join?)
  • Login
  • US Flag 
11:39AM EDT


 

Airport Tracker/Info


-or-


 

Live Flight TrackerFlight Track Log ✈ QLK384 ✈ 19-Jun-2013 ✈ YBBN / BNE - YHBA / HVB

Flight Track Log - Related Links

Times and Time Zones

All times are in EDT time to prevent confusion due to time zone crossing. See the QLK384 flight status page for this flight to view local times or setup timezone preferences in your user account.

Time Position Orientation Groundspeed Altitude Reporting Facility
EDT Latitude Longitude Course Direction KTS MPH feet Rate Location/Type
06:13AM -27.4114 153.1108 305° West 116 133 1,200  Level Aus ATC (RADAR)
06:14AM -27.3929 153.0808 305° West 158 182 2,100 1,560 Climbing Aus ATC (RADAR)
06:15AM -27.3560 153.0403 316° Northwest 165 190 4,100 1,560 Climbing Aus ATC (RADAR)
06:16AM -27.3245 153.0038 314° West 196 226 5,100 1,380 Climbing Aus ATC (RADAR)
06:17AM -27.2644 153.0023 359° North 206 237 6,800 1,560 Climbing Aus ATC (RADAR)
06:17AM -27.2314 153.0062 North 205 236 7,700 1,620 Climbing Aus ATC (RADAR)
06:18AM -27.1836 153.0133 North 205 236 9,100 1,500 Climbing Aus ATC (RADAR)
06:19AM -27.1463 153.0183 North 204 235 10,000 1,260 Climbing Aus ATC (RADAR)
06:20AM -27.0926 153.0254 North 212 244 11,100 1,080 Climbing Aus ATC (RADAR)
06:20AM -27.0434 153.0318 North 213 245 11,900 900 Climbing Aus ATC (RADAR)
06:21AM -26.9877 153.0392 North 220 253 12,700 900 Climbing Aus ATC (RADAR)
06:22AM -26.9521 153.0445 North 220 253 13,300 900 Climbing Aus ATC (RADAR)
06:23AM -26.9006 153.0508 North 224 258 14,000 540 Climbing Aus ATC (RADAR)
06:24AM -26.8467 153.0570 North 239 275 14,200 60 Climbing Aus ATC (RADAR)
06:25AM -26.7607 153.0696 North 270 311 14,200  Level Aus ATC (RADAR)
06:26AM -26.7035 153.0767 North 277 319 14,200  Level Aus ATC (RADAR)
06:26AM -26.6330 153.0860 North 279 321 14,200  Level Aus ATC (RADAR)
06:27AM -26.5883 153.0911 North 278 320 14,200  Level Aus ATC (RADAR)
06:28AM -26.5210 153.0784 350° North 266 306 14,200  Level Aus ATC (RADAR)
06:29AM -26.4661 153.0684 351° North 268 308 14,200  Level Aus ATC (RADAR)
06:30AM -26.3864 153.0551 351° North 268 308 14,200  Level Aus ATC (RADAR)
06:31AM -26.3244 153.0461 353° North 270 311 14,200  Level Aus ATC (RADAR)
06:31AM -26.2604 153.0481 North 276 318 14,200  Level Aus ATC (RADAR)
06:32AM -26.1971 153.0481 360° North 273 314 14,200  Level Aus ATC (RADAR)
06:33AM -26.1342 153.0480 360° North 271 312 14,200  Level Aus ATC (RADAR)
06:34AM -26.0903 153.0474 359° North 271 312 14,200  Level Aus ATC (RADAR)
06:35AM -26.0272 153.0460 359° North 270 311 14,200  Level Aus ATC (RADAR)
06:35AM -25.9834 153.0466 North 269 310 14,200 -660 Level Aus ATC (RADAR)
06:36AM -25.9255 153.0454 359° North 276 318 13,400 -1,260 Descending Aus ATC (RADAR)
06:37AM -25.8531 153.0455 360° North 285 328 12,100 -1,560 Descending Aus ATC (RADAR)
06:37AM -25.8077 153.0462 North 281 323 11,100 -1,680 Descending Aus ATC (RADAR)
06:38AM -25.7447 153.0466 360° North 271 312 9,800 -1,500 Descending Aus ATC (RADAR)
06:39AM -25.6819 153.0446 358° North 272 313 8,600 -1,440 Descending Aus ATC (RADAR)
06:41AM -25.5562 153.0443 360° North 242 278 6,200 -1,260 Descending Aus ATC (RADAR)
06:42AM -25.4879 153.0410 358° North 209 241 5,000 -1,080 Descending Aus ATC (RADAR)
06:45AM -25.3599 152.9203 319° Northwest -1,620 Descending Aus ATC (Calculated)
06:47AM -25.3213 152.8827 319° Northwest  Level FlightAware Approximate
06:48AM -25.3189 152.8803 319° Northwest  Level Estimated
06:49AM -25.3189 152.8803 12° North  Level Estimated
06:50AM -25.3189 152.8803 12° North  Level Estimated